Weather observations for the past three days for
Cannon Air Force Base / Clovis
Metric (Imperial)
Date Time (mdt) Wind (kph) Vis. (km) Weather Sky Cond. Temperature (ºC) Relative Humidity Wind Chill (°C) Heat Index (°C) Pressure Precipitation (cm)
Air Dwpt 6 hour altimeter (cm) sea level (mb) 1 hr 3 hr 6 hr
Max. Min.
31 15:55 S 24 G 39 16.09 Fair CLR 34.2 6.5 18% 32 76.3 1009.4
31 14:55 SE 22 G 35 16.09 Fair CLR 34.8 7.7 19% 33 76.35 1009.8
31 13:55 S 19 G 30 16.09 Fair CLR 34.4 8.9 21% 32 76.43 1011.1
31 12:55 S 13 G 41 16.09 Fair CLR 33.9 11.1 25% 32 76.48 1011.5
31 11:55 SE 19 16.09 Fair CLR 33.1 12.1 33.4 20.9 28% 32 76.5 1011.9
31 10:55 S 15 16.09 Fair CLR 31.2 12.5 32% 30 76.56 1012.9
31 09:55 S 13 16.09 Fair CLR 28.8 14.2 41% 28 76.53 1012.5
31 08:55 S 20 16.09 Fair CLR 26.5 14.2 47% 27 76.5 1012.2
31 07:55 S 15 16.09 Fair CLR 24.2 13.7 52% 25 76.48 1012.2
31 06:55 SW 9 16.09 Fair CLR 21.9 13.5 59% 76.43 1011.1
31 05:55 S 7 16.09 Fair CLR 21.3 12.2 24.4 20.2 56% 76.4 1010.5
31 04:55 Calm 16.09 A Few Clouds FEW120 21.3 11 52% 76.4 1010.5
31 03:55 S 13 16.09 A Few Clouds FEW130 22.2 11.3 50% 76.38 1009.8
31 02:55 S 9 16.09 Fair CLR 22.7 11.1 48% 76.38 1009.8
31 01:55 S 13 16.09 Fair CLR 22.9 10.7 46% 76.35 1009.8
31 00:55 S 13 16.09 Fair CLR 23.2 10.9 46% 76.38 1010.1
30 23:55 S 13 16.09 Fair CLR 23.9 10.2 36.3 23.9 42% 25 76.35 1009.5
30 22:55 S 19 16.09 Fair CLR 25.8 9.6 36% 26 76.33 1009.1
30 21:55 SE 17 16.09 Fair CLR 26.3 9.2 34% 26 76.3 1009.1
30 20:55 SE 19 16.09 Fair CLR 28.1 8.9 30% 27 76.25 1008.7
30 19:55 S 20 16.09 Fair CLR 30.6 9.4 27% 29 76.17 1007.7
30 18:55 SE 30 16.09 Fair CLR 33.7 8.3 21% 32 76.15 1007.3
30 17:55 S 30 16.09 Partly Cloudy SCT120 36.3 7.3 38 34.8 17% 34 76.12 1006.7
30 16:55 S 15 G 31 16.09 Partly Cloudy SCT110 37.7 7.5 16% 35 76.15 1006.6
30 15:55 SW 15 16.09 A Few Clouds FEW100 36.9 7.8 17% 35 76.15 1006.7
30 14:55 SW 13 16.09 Mostly Cloudy SCT100 BKN120 36.8 7.7 17% 35 76.23 1007.6
30 13:55 SW 19 16.09 A Few Clouds FEW100 34.8 7.7 19% 33 76.28 1008.4
30 12:55 W 19 16.09 Fair CLR 35.7 8.5 19% 34 76.33 1009.0
30 11:55 W 19 G 31 16.09 Fair CLR 35.9 9.4 36 20.9 20% 34 76.38 1009.7
30 10:55 W 15 G 33 16.09 Fair CLR 34.1 10 23% 32 76.43 1010.5
30 09:55 SW 19 16.09 Fair CLR 31.5 12.8 32% 30 76.43 1010.5
30 08:55 SW 26 16.09 Fair CLR 28.4 14.2 42% 28 76.43 1010.8
30 07:55 SW 19 16.09 Fair CLR 24.8 14.6 53% 26 76.48 1011.8
30 06:55 SW 9 16.09 Fair CLR 22.1 14 60% 76.43 1011.1
30 05:55 SW 11 16.09 Fair CLR 22.3 13.4 25.6 22.1 57% 76.4 1010.1
30 04:55 SW 17 16.09 Overcast BKN120 OVC150 23.5 12.5 50% 76.43 1010.4
30 03:55 SW 11 16.09 Overcast OVC130 23.5 11.8 48% 76.43 1010.4
30 02:55 SW 15 16.09 Fair CLR 24.5 11.1 43% 26 76.4 1010.1
30 01:55 S 15 16.09 Fair CLR 24.6 10.8 42% 26 76.38 1009.7
30 00:55 S 17 16.09 Fair CLR 25.4 10.4 39% 26 76.4 1010.1
29 23:55 S 17 16.09 Fair CLR 25.1 10.5 36.8 25 40% 26 76.43 1010.5
29 22:55 S 17 16.09 Fair CLR 26.8 10.5 36% 27 76.4 1010.1
29 21:55 S 20 16.09 Fair CLR 27.9 9.7 32% 27 76.38 1009.8
29 20:55 S 22 16.09 Fair CLR 29.2 10.3 31% 28 76.33 1009.8
29 19:55 S 22 16.09 Fair CLR 31.6 9.1 25% 30 76.25 1008.7
29 18:55 S 30 G 43 16.09 Fair CLR 34.5 9 21% 33 76.2 1008.0
29 17:55 S 28 16.09 Fair CLR 37 7.9 38.1 34.9 17% 35 76.2 1007.4
29 16:55 S 20 16.09 A Few Clouds FEW100 37.1 8 17% 35 76.2 1007.4
29 15:55 S 26 G 31 16.09 A Few Clouds FEW100 38.1 7.9 16% 36 76.25 1008.0
29 14:55 S 17 16.09 Fair CLR 36.4 8.2 18% 34 76.33 1009.4
29 13:55 SW 28 G 33 16.09 Fair CLR 37.2 8.9 18% 35 76.4 1010.1
29 12:55 SW 11 G 35 16.09 Fair CLR 36.2 9.6 20% 34 76.45 1010.8
29 11:55 S 24 16.09 Fair CLR 34.8 9.9 35.6 20.5 22% 33 76.53 1012.2
29 10:55 SW 26 G 41 16.09 Fair CLR 34.4 11.5 25% 33 76.58 1012.6
29 09:55 SW 24 16.09 Fair CLR 30.8 13.1 34% 30 76.61 1013.2
29 08:55 SW 20 16.09 Fair CLR 27.2 14.2 45% 27 76.66 1014.6
29 06:55 SW 7 16.09 Fair CLR 20.9 13.6 63% 76.63 1014.2
29 05:55 S 15 16.09 Fair CLR 22.1 13.7 24.6 20.8 59% 76.61 1013.9
29 04:55 S 15 16.09 Fair CLR 22.6 12.5 53% 76.63 1013.9
29 03:55 S 19 16.09 Fair CLR 23.5 12.2 49% 76.63 1013.3
29 02:55 SW 11 16.09 Fair CLR 22.7 12.3 52% 76.61 1013.2
29 01:55 S 11 16.09 Fair CLR 24.3 11.3 44% 25 76.63 1013.6
29 00:55 S 11 16.09 Fair CLR 23.7 12.3 49% 76.63 1013.6
28 23:55 S 11 16.09 Fair CLR 23.6 12.9 33 23.2 51% 76.63 1013.9
28 22:55 S 17 16.09 Fair CLR 25 12.9 47% 26 76.63 1014.2
28 21:55 SE 19 16.09 Fair CLR 26.3 13.1 44% 27 76.61 1014.2
28 20:55 SE 17 16.09 Fair CLR 27.4 13 41% 27 76.56 1013.5
28 19:55 SE 20 16.09 Fair CLR 29 13.2 38% 28 76.48 1012.5
28 18:55 S 26 16.09 Thunderstorm in Vicinity CLR 32 12.7 31% 31 76.45 1012.1
28 17:55 S 30 16.09 Thunderstorm FEW150 32.6 14.2 36.2 30.6 33% 32 76.45 1011.8
Date Time (mdt) Wind (kph) Vis. (km) Weather Sky Cond. Air Dwpt Max. Min. Relative Humidity Wind Chill (°C) Heat Index (°C) altimeter (cm) sea level (mb) 1 hr 3 hr 6 hr
6 hour
Temperature (ºC) Pressure Precipitation (cm)